Konya, Turkey

4:57 AM EEST on August 29, 2016 (GMT +0300)
Konya Air Base | | Change Station

Elev 3383 ft 37.98 °N, 32.56 °E | Updated 1 hour ago

Clear
Clear
68 °F
Feels Like 68 °F
N
8
Wind Variable Wind from NNW

Today
High -- | Low -- °F
--% Chance of Precip.
Yesterday
High -- | Low -- °F
Precip. -- in
Pressure 30.01 in
Visibility -9999.0 miles
Clouds
Dew Point 54 °F
Humidity 60%
Rainfall 0.00 in
Snow Depth Not available.
6:17 AM 7:23 PM
Waning Crescent, 12% visible
METAR LTAN 290050Z 34007KT CAVOK 20/12 Q1016 NOSIG
Pressure 30.01 in
Visibility -9999.0 miles
Clouds
Dew Point 54 °F
Humidity 60%
Rainfall 0.00 in
Snow Depth Not available.
6:17 AM 7:23 PM
Waning Crescent, 12% visible
METAR LTAN 290050Z 34007KT CAVOK 20/12 Q1016 NOSIG

10-Day Weather Forecast

×

Almanac

Astronomy

Aug. 29, 2016 Rise Set
Actual Time
Civil Twilight
Nautical Twilight
Astronomical Twilight
Moon
Length of Visible Light
Length of Day
Tomorrow will be .
, % of the Moon is Illuminated

Today's Extremes

Country Highs Country Lows

Community

WunderPhotos

Upload Photos

1,935,757 photos uploaded!

WunderBlog® & News

Nearby

Air Quality

  Air Quality AQ Index Pollutant
Not available.

Snow Depth

Station Depth Elevation

Earthquake Activity

City Distance Mag. Time & Date
Minimum magnitude displayed is 2.5.

Coastal Water Temperatures

Place Temperature

Stations

Nearby Weather Stations

Station Location Temp. Windchill Dew Point Humidity Wind Precip. Elev Updated Type